createdAt,value
2018-07-23T04:17:40.231Z,19.40
2018-07-23T04:20:11.834Z,19.40
2018-07-23T04:22:42.625Z,19.40
2018-07-23T04:25:13.653Z,19.40
2018-07-23T04:27:44.581Z,19.40
2018-07-23T04:30:15.399Z,19.50
2018-07-23T04:32:46.378Z,19.50
2018-07-23T04:35:17.314Z,19.60
2018-07-23T04:37:48.383Z,19.70
2018-07-23T04:42:49.536Z,19.80
2018-07-23T04:45:20.529Z,19.90
2018-07-23T04:47:51.352Z,20.00
2018-07-23T04:50:22.145Z,20.00
2018-07-23T04:52:53.001Z,20.10
2018-07-23T04:57:54.132Z,20.20
2018-07-23T05:00:24.938Z,20.20
2018-07-23T05:02:55.784Z,20.20
2018-07-23T05:05:26.552Z,20.20
2018-07-23T05:07:57.241Z,20.20
2018-07-23T05:10:28.093Z,20.10
2018-07-23T05:12:59.000Z,20.20
2018-07-23T05:15:29.931Z,20.10
2018-07-23T05:18:01.256Z,20.10
2018-07-23T05:23:02.417Z,20.10
2018-07-23T05:25:33.275Z,20.10
2018-07-23T05:28:04.219Z,20.10
2018-07-23T05:30:35.095Z,20.20
2018-07-23T05:33:06.211Z,20.20
2018-07-23T05:35:37.087Z,20.30
2018-07-23T05:38:08.345Z,20.30
2018-07-23T05:40:39.421Z,20.30
2018-07-23T05:43:10.951Z,20.40
2018-07-23T05:48:12.206Z,20.60
2018-07-23T05:50:42.969Z,20.60
2018-07-23T05:53:13.980Z,20.60
2018-07-23T05:55:54.469Z,20.60
2018-07-23T05:58:25.284Z,20.70
2018-07-23T06:00:56.261Z,20.80
2018-07-23T06:03:27.205Z,20.80
2018-07-23T06:06:09.968Z,20.90
2018-07-23T06:08:40.830Z,20.90
2018-07-23T06:11:11.583Z,21.00
2018-07-23T06:13:42.371Z,21.10
2018-07-23T06:16:13.265Z,21.20
2018-07-23T06:18:44.350Z,21.30
2018-07-23T06:21:15.091Z,21.50
2018-07-23T06:23:55.579Z,21.80
2018-07-23T06:26:26.556Z,22.70
2018-07-23T06:28:57.502Z,24.90
2018-07-23T06:31:32.619Z,27.10
2018-07-23T06:34:03.759Z,29.30
2018-07-23T06:36:34.613Z,30.90
2018-07-23T06:39:08.625Z,32.00
2018-07-23T06:41:39.964Z,32.90
2018-07-23T06:44:10.740Z,33.50
2018-07-23T06:46:41.726Z,34.10
2018-07-23T06:49:12.224Z,34.60
2018-07-23T06:51:42.950Z,35.00
2018-07-23T06:54:13.663Z,36.00
2018-07-23T06:56:44.397Z,36.90
2018-07-23T06:59:15.144Z,37.10
2018-07-23T07:04:15.993Z,38.20
2018-07-23T07:09:16.888Z,38.10
2018-07-23T07:11:47.746Z,38.50
2018-07-23T07:14:18.693Z,38.80
2018-07-23T07:16:49.367Z,38.90
2018-07-23T07:19:20.408Z,38.70
2018-07-23T07:21:51.055Z,38.80
2018-07-23T07:24:21.751Z,38.80
2018-07-23T07:29:22.576Z,39.70
2018-07-23T07:31:53.408Z,39.30
2018-07-23T07:34:24.134Z,39.70
2018-07-23T07:36:54.804Z,39.50
2018-07-23T07:39:25.473Z,38.60
2018-07-23T07:41:56.177Z,37.90
2018-07-23T07:46:57.011Z,37.70
2018-07-23T07:49:27.776Z,38.20
2018-07-23T07:51:58.653Z,38.00
2018-07-23T07:54:29.264Z,37.90
2018-07-23T07:57:00.150Z,37.40
2018-07-23T08:39:57.120Z,38.60
2018-07-23T08:42:29.412Z,37.80
2018-07-23T08:45:00.702Z,37.00
2018-07-23T08:47:31.618Z,37.20
2018-07-23T08:50:03.082Z,37.20
2018-07-23T08:55:07.153Z,36.90
2018-07-23T08:57:56.157Z,36.90
2018-07-23T09:03:04.497Z,36.90
2018-07-23T09:10:43.944Z,37.00
2018-07-23T09:13:21.548Z,37.30
2018-07-23T09:18:47.560Z,36.10
2018-07-23T09:21:19.051Z,34.50
2018-07-23T09:23:59.035Z,33.40
2018-07-23T09:26:30.917Z,33.30
2018-07-23T09:29:01.788Z,33.60
2018-07-23T09:31:32.774Z,33.90
2018-07-23T09:34:03.623Z,33.60
2018-07-23T09:36:34.559Z,34.30
2018-07-23T09:39:09.624Z,35.20
2018-07-23T09:41:40.812Z,35.80
2018-07-23T09:44:11.860Z,35.50
2018-07-23T09:46:42.931Z,35.10
2018-07-23T09:49:13.877Z,34.20
2018-07-23T09:51:44.875Z,33.30
2018-07-23T09:54:15.867Z,32.60
2018-07-23T09:56:48.290Z,33.50
2018-07-23T09:59:19.202Z,34.50
2018-07-23T10:04:20.418Z,34.10
2018-07-23T10:06:51.428Z,34.30
2018-07-23T10:09:22.981Z,34.40
2018-07-23T10:11:57.436Z,35.00
2018-07-23T10:14:29.158Z,35.50
2018-07-23T10:17:02.482Z,34.80
2018-07-23T10:19:33.722Z,34.60
2018-07-23T10:24:38.548Z,34.40
2018-07-23T10:27:09.656Z,34.10
2018-07-23T10:29:40.379Z,34.10
2018-07-23T10:32:11.164Z,34.10
2018-07-23T10:34:42.199Z,33.90
2018-07-23T10:37:14.092Z,33.60
2018-07-23T10:39:45.424Z,34.00
2018-07-23T10:42:17.831Z,33.50
2018-07-23T10:44:48.724Z,32.90
2018-07-23T10:47:19.770Z,32.90
2018-07-23T10:49:50.848Z,32.80
2018-07-23T10:52:23.889Z,33.00
2018-07-23T10:54:59.970Z,33.30
2018-07-23T10:57:30.997Z,33.70
2018-07-23T11:00:02.012Z,33.70
2018-07-23T11:02:33.105Z,33.70
2018-07-23T11:05:04.103Z,33.70
2018-07-23T11:07:34.983Z,33.20
2018-07-23T11:10:07.004Z,33.00
2018-07-23T11:12:38.405Z,33.20
2018-07-23T11:15:22.289Z,33.10
2018-07-23T11:18:06.131Z,33.40
2018-07-23T12:03:44.189Z,33.90
2018-07-23T12:08:58.112Z,33.20
2018-07-23T12:11:35.642Z,33.40
2018-07-23T12:14:07.220Z,33.80
2018-07-23T12:16:41.472Z,34.10
2018-07-23T12:19:12.365Z,34.30
2018-07-23T12:21:43.212Z,34.60
2018-07-23T12:24:14.263Z,34.80
2018-07-23T12:26:45.272Z,34.80
2018-07-23T12:29:16.132Z,34.60
2018-07-23T12:31:46.931Z,34.40
2018-07-23T12:34:18.005Z,34.10
2018-07-23T12:36:48.955Z,34.10
2018-07-23T12:39:19.862Z,34.30
2018-07-23T12:44:24.942Z,34.30
2018-07-23T12:47:16.605Z,34.50
2018-07-23T12:49:51.508Z,34.30
2018-07-23T12:52:26.496Z,34.00
2018-07-23T12:55:09.335Z,33.60
2018-07-23T12:57:40.601Z,33.20
2018-07-23T13:00:14.499Z,32.70
2018-07-23T13:02:46.234Z,32.40
2018-07-23T13:05:19.369Z,32.40
2018-07-23T13:07:50.209Z,32.40
2018-07-23T13:10:22.535Z,32.20
2018-07-23T13:12:53.663Z,32.10
2018-07-23T13:20:28.528Z,32.60
2018-07-23T13:25:35.117Z,32.90
2018-07-23T13:28:23.460Z,32.80
2018-07-23T13:30:57.415Z,32.90
2018-07-23T13:33:54.874Z,32.90
2018-07-23T13:36:29.834Z,32.70
2018-07-23T13:39:11.697Z,32.50
2018-07-23T13:41:42.786Z,32.60
2018-07-23T13:44:13.675Z,32.60
2018-07-23T13:46:44.808Z,32.60
2018-07-23T13:49:15.710Z,32.50
2018-07-23T13:51:46.796Z,32.00
2018-07-23T13:54:17.822Z,31.80
2018-07-23T13:56:48.898Z,31.80
2018-07-23T13:59:19.810Z,31.50
2018-07-23T14:01:50.862Z,31.30
2018-07-23T14:04:25.669Z,31.10
2018-07-23T14:06:56.974Z,31.10
2018-07-23T14:09:29.324Z,30.90
2018-07-23T14:12:00.269Z,31.10
2018-07-23T14:14:31.081Z,31.10
2018-07-23T14:17:02.039Z,31.10
2018-07-23T14:19:32.896Z,31.10
2018-07-23T14:22:03.792Z,30.90
2018-07-23T14:24:34.658Z,30.60
2018-07-23T14:27:05.807Z,30.50
2018-07-23T14:29:36.739Z,30.40
2018-07-23T14:32:07.587Z,30.40
2018-07-23T14:34:38.429Z,30.30
2018-07-23T14:37:09.345Z,30.30
2018-07-23T14:39:40.497Z,30.20
2018-07-23T14:42:17.175Z,30.10
2018-07-23T14:44:48.041Z,30.10
2018-07-23T14:47:18.898Z,30.00
2018-07-23T14:49:52.389Z,30.00
2018-07-23T14:52:23.338Z,29.90
2018-07-23T14:54:54.821Z,29.80
2018-07-23T14:57:29.902Z,29.90
2018-07-23T15:00:00.844Z,29.80
2018-07-23T15:05:10.273Z,29.50
2018-07-23T15:07:41.567Z,29.50
2018-07-23T15:10:12.477Z,29.40
2018-07-23T15:17:45.011Z,29.50
2018-07-23T15:20:16.090Z,29.40
2018-07-23T15:23:07.435Z,29.50
2018-07-23T15:25:44.752Z,29.50
2018-07-23T15:28:15.593Z,29.60
2018-07-23T15:30:46.499Z,29.60
2018-07-23T15:35:47.661Z,29.70
2018-07-23T15:38:18.507Z,29.50
2018-07-23T15:40:49.568Z,29.50
2018-07-23T15:43:20.453Z,29.40
2018-07-23T15:45:51.549Z,29.40
2018-07-23T15:48:22.388Z,29.30
2018-07-23T15:51:12.066Z,29.20
2018-07-23T15:53:42.938Z,29.10
2018-07-23T15:56:13.856Z,29.00
2018-07-23T15:58:45.938Z,29.00
2018-07-23T16:01:21.461Z,28.90
2018-07-23T16:03:52.482Z,29.00
2018-07-23T16:06:23.328Z,29.00
2018-07-23T16:08:54.337Z,29.00
2018-07-23T16:13:56.761Z,28.80
2018-07-23T16:16:27.522Z,28.80
2018-07-23T16:19:01.861Z,28.80
2018-07-23T16:21:36.152Z,28.70
2018-07-23T16:24:17.007Z,28.70
2018-07-23T16:26:47.851Z,28.60
2018-07-23T16:29:18.564Z,28.60
2018-07-23T16:31:49.413Z,28.60
2018-07-23T16:34:20.219Z,28.60
2018-07-23T16:36:50.890Z,28.50
2018-07-23T16:39:22.669Z,28.40
2018-07-23T16:41:53.486Z,28.30
2018-07-23T16:44:25.049Z,28.30
2018-07-23T16:46:55.762Z,28.30
2018-07-23T16:49:26.553Z,28.10
2018-07-23T16:54:27.581Z,28.00
2018-07-23T16:56:58.374Z,27.90
2018-07-23T16:59:29.154Z,27.90
2018-07-23T17:01:59.942Z,27.90
2018-07-23T17:04:30.740Z,27.90
2018-07-23T17:07:01.470Z,27.90
2018-07-23T17:12:02.718Z,27.80
2018-07-23T17:14:33.464Z,27.90
2018-07-23T17:17:04.284Z,27.80
2018-07-23T17:19:35.194Z,27.70
2018-07-23T17:22:05.895Z,27.60
2018-07-23T17:24:36.625Z,27.60
2018-07-23T17:27:07.666Z,27.60
2018-07-23T17:29:38.590Z,27.60
2018-07-23T17:34:39.572Z,27.60
2018-07-23T17:37:10.402Z,27.50
2018-07-23T17:39:41.190Z,27.50
2018-07-23T17:42:11.979Z,27.40
2018-07-23T17:44:42.874Z,27.40
2018-07-23T17:47:13.740Z,27.30
2018-07-23T17:49:44.499Z,27.30
2018-07-23T17:52:15.358Z,27.30
2018-07-23T17:54:46.119Z,27.30
2018-07-23T17:57:16.848Z,27.20
2018-07-23T17:59:47.657Z,27.20
2018-07-23T18:02:18.486Z,27.10
2018-07-23T18:04:50.202Z,27.00
2018-07-23T18:07:21.185Z,27.00
2018-07-23T18:09:53.092Z,26.90
2018-07-23T18:12:23.697Z,26.90
2018-07-23T18:14:54.389Z,26.80
2018-07-23T18:27:19.421Z,26.80
2018-07-23T18:29:50.816Z,26.70
2018-07-23T18:32:22.557Z,26.40
2018-07-23T18:34:54.515Z,26.30
2018-07-23T18:37:26.042Z,26.30
2018-07-23T18:39:58.739Z,26.20
2018-07-23T18:42:32.278Z,26.20
2018-07-23T18:45:03.591Z,26.10
2018-07-23T19:00:28.081Z,26.10
2018-07-23T19:03:19.610Z,25.80
2018-07-23T19:06:00.685Z,25.70
2018-07-23T19:08:39.875Z,25.60
2018-07-23T19:11:22.576Z,25.60
2018-07-23T19:14:04.111Z,25.50
2018-07-23T19:16:40.206Z,25.40
2018-07-23T19:20:25.111Z,25.40
2018-07-23T19:25:51.545Z,25.30
2018-07-23T19:28:37.411Z,25.20
2018-07-23T19:31:22.888Z,25.10
2018-07-23T19:33:54.794Z,25.00
2018-07-23T19:38:59.409Z,24.90
2018-07-23T19:41:30.935Z,24.70
2018-07-23T19:44:04.240Z,24.80
2018-07-23T19:46:36.954Z,24.80
2018-07-23T19:49:08.168Z,24.80
2018-07-23T19:51:40.954Z,24.70
2018-07-23T19:54:13.953Z,24.60
2018-07-23T19:56:45.892Z,24.50
2018-07-23T19:59:16.643Z,24.40
2018-07-23T20:01:47.397Z,24.30
2018-07-23T20:23:50.457Z,23.90
2018-07-23T20:26:21.679Z,23.90
2018-07-23T20:29:00.713Z,23.80
2018-07-23T20:31:57.607Z,23.70
2018-07-23T20:34:54.053Z,23.70
2018-07-23T20:43:39.179Z,23.50
2018-07-23T20:48:48.236Z,23.40
2018-07-23T20:51:21.530Z,23.40
2018-07-23T20:53:55.251Z,23.40
2018-07-23T20:56:33.848Z,23.40
2018-07-23T20:59:04.873Z,23.30
2018-07-23T21:04:11.365Z,23.20
2018-07-23T21:06:42.386Z,23.20
2018-07-23T21:09:13.271Z,23.20
2018-07-23T21:11:44.413Z,23.10
2018-07-23T21:14:18.185Z,23.00
2018-07-23T21:16:49.537Z,23.00
2018-07-23T21:22:31.032Z,22.90
2018-07-23T21:25:02.792Z,22.80
2018-07-23T21:30:06.227Z,22.80
2018-07-23T21:32:38.564Z,22.60
2018-07-23T21:35:10.768Z,22.60
2018-07-23T21:37:43.168Z,22.50
2018-07-23T21:40:15.722Z,22.50
2018-07-23T21:42:46.969Z,22.40
2018-07-23T21:45:18.170Z,22.40
2018-07-23T21:47:49.354Z,22.40
2018-07-23T21:50:20.525Z,22.30
2018-07-23T21:52:51.529Z,22.20
2018-07-23T21:55:22.576Z,22.20
2018-07-23T21:57:53.828Z,22.10
2018-07-23T22:00:25.093Z,22.10
2018-07-23T22:02:56.134Z,22.10
2018-07-23T22:05:27.036Z,22.10
2018-07-23T22:07:57.944Z,22.00
2018-07-23T22:10:29.005Z,21.90
2018-07-23T22:12:59.983Z,21.90
2018-07-23T22:15:30.880Z,21.90
2018-07-23T22:18:01.952Z,21.80
2018-07-23T22:20:32.907Z,21.70
2018-07-23T22:23:03.955Z,21.70
2018-07-23T22:25:49.281Z,21.70
2018-07-23T22:28:20.503Z,21.70
2018-07-23T22:30:51.855Z,21.60
2018-07-23T22:33:22.902Z,21.60
2018-07-23T22:35:54.140Z,21.50
2018-07-23T22:38:25.479Z,21.30
2018-07-23T22:40:57.551Z,21.20
2018-07-23T22:43:28.724Z,21.00
2018-07-23T22:45:59.884Z,20.90
2018-07-23T22:48:31.112Z,20.80
2018-07-23T22:51:02.674Z,20.80
2018-07-23T22:53:33.788Z,20.70
2018-07-23T22:56:04.877Z,20.60
2018-07-23T22:58:35.826Z,20.60
2018-07-23T23:01:06.909Z,20.50
2018-07-23T23:03:38.011Z,20.50
2018-07-23T23:06:09.078Z,20.40
2018-07-23T23:08:40.286Z,20.40
2018-07-23T23:11:11.233Z,20.40
2018-07-23T23:13:42.521Z,20.40
2018-07-23T23:18:44.011Z,20.40
2018-07-23T23:21:15.078Z,20.30
2018-07-23T23:23:46.230Z,20.40
2018-07-23T23:26:17.794Z,20.30
2018-07-23T23:28:48.996Z,20.30
2018-07-23T23:31:20.256Z,20.20
2018-07-23T23:33:53.053Z,20.30
2018-07-23T23:36:24.095Z,20.20
2018-07-23T23:38:56.675Z,20.20
2018-07-23T23:41:29.049Z,20.10
2018-07-23T23:44:01.529Z,20.10
2018-07-23T23:46:32.752Z,20.00
2018-07-23T23:49:04.043Z,20.10
2018-07-23T23:51:35.218Z,20.00
2018-07-23T23:54:06.416Z,20.00
2018-07-23T23:56:37.572Z,20.00
2018-07-23T23:59:08.855Z,20.00
